N226DA KLAX-KSAN
Flight info
| Callsign | N226DA |
|---|---|
| Flight time | 1h 40m |
| Altitude | 5000 |
| Route | SLI8 SLI V64 V363 DANAH V23 MZB |
| Aircraft | DA40/L-VGD/C |
Departure
| Time | 2026-04-20 19:55 |
|---|---|
| Airport | Los Angeles International Airport (KLAX) |
Arrival
| Time | 2026-04-20 21:35 |
|---|---|
| Airport | San Diego International Airport (KSAN) |
| Time | Latitude | Longitude | Altitude | Speed | Heading |
|---|---|---|---|---|---|
| 2026-04-20 19:27 | 33.93313 | -118.40137 | 119 ft | 0 kts | 175° |
| 2026-04-20 19:43 | 33.93310 | -118.40133 | 119 ft | 1 kts | 108° |
| 2026-04-20 19:44 | 33.93320 | -118.40128 | 117 ft | 6 kts | 342° |
| 2026-04-20 19:44 | 33.93375 | -118.40144 | 119 ft | 9 kts | 352° |
| 2026-04-20 19:44 | 33.93399 | -118.40148 | 119 ft | 0 kts | 353° |
| 2026-04-20 19:44 | 33.93403 | -118.40148 | 119 ft | 2 kts | 352° |
| 2026-04-20 19:45 | 33.93424 | -118.40136 | 119 ft | 4 kts | 89° |
| 2026-04-20 19:45 | 33.93429 | -118.40069 | 119 ft | 12 kts | 84° |
| 2026-04-20 19:45 | 33.93442 | -118.39952 | 119 ft | 16 kts | 83° |
| 2026-04-20 19:45 | 33.93456 | -118.39806 | 119 ft | 19 kts | 84° |
| 2026-04-20 19:46 | 33.93474 | -118.39638 | 119 ft | 21 kts | 82° |
| 2026-04-20 19:46 | 33.93491 | -118.39451 | 119 ft | 24 kts | 85° |
| 2026-04-20 19:46 | 33.93512 | -118.39250 | 119 ft | 25 kts | 83° |
| 2026-04-20 19:46 | 33.93534 | -118.39048 | 119 ft | 18 kts | 82° |
| 2026-04-20 19:47 | 33.93550 | -118.38891 | 119 ft | 20 kts | 83° |
| 2026-04-20 19:47 | 33.93568 | -118.38715 | 118 ft | 23 kts | 82° |
| 2026-04-20 19:47 | 33.93588 | -118.38518 | 119 ft | 25 kts | 83° |
| 2026-04-20 19:47 | 33.93607 | -118.38332 | 119 ft | 7 kts | 80° |
| 2026-04-20 19:48 | 33.93639 | -118.38279 | 119 ft | 1 kts | 17° |
| 2026-04-20 19:48 | 33.93639 | -118.38278 | 119 ft | 0 kts | 15° |
| 2026-04-20 19:53 | 33.93641 | -118.38278 | 119 ft | 3 kts | 13° |
| 2026-04-20 19:53 | 33.93713 | -118.38291 | 117 ft | 17 kts | 328° |
| 2026-04-20 19:54 | 33.93716 | -118.38485 | 119 ft | 43 kts | 263° |
| 2026-04-20 19:54 | 33.93678 | -118.38941 | 234 ft | 58 kts | 264° |
| 2026-04-20 19:54 | 33.93640 | -118.39434 | 434 ft | 58 kts | 263° |
| 2026-04-20 19:54 | 33.93590 | -118.39957 | 567 ft | 67 kts | 261° |
| 2026-04-20 19:55 | 33.93534 | -118.40556 | 851 ft | 75 kts | 261° |
| 2026-04-20 19:55 | 33.93493 | -118.41192 | 1091 ft | 76 kts | 262° |
| 2026-04-20 19:55 | 33.93449 | -118.41816 | 1379 ft | 74 kts | 261° |
| 2026-04-20 19:55 | 33.93421 | -118.42448 | 1646 ft | 75 kts | 261° |
| 2026-04-20 19:56 | 33.93404 | -118.42854 | 1848 ft | 71 kts | 263° |
| 2026-04-20 19:56 | 33.93356 | -118.43686 | 2200 ft | 77 kts | 262° |
| 2026-04-20 19:56 | 33.93258 | -118.44326 | 2420 ft | 78 kts | 236° |
| 2026-04-20 19:56 | 33.92854 | -118.44755 | 2557 ft | 80 kts | 212° |
| 2026-04-20 19:57 | 33.92370 | -118.45078 | 2714 ft | 80 kts | 189° |
| 2026-04-20 19:57 | 33.91844 | -118.44924 | 2870 ft | 80 kts | 141° |
| 2026-04-20 19:57 | 33.91552 | -118.44364 | 3036 ft | 81 kts | 103° |
| 2026-04-20 19:57 | 33.91591 | -118.43696 | 3202 ft | 81 kts | 88° |
| 2026-04-20 19:58 | 33.91502 | -118.43037 | 3354 ft | 81 kts | 107° |
| 2026-04-20 19:58 | 33.91311 | -118.42408 | 3604 ft | 80 kts | 111° |
| 2026-04-20 19:58 | 33.91116 | -118.41789 | 3846 ft | 80 kts | 113° |
| 2026-04-20 19:58 | 33.90912 | -118.41169 | 4053 ft | 81 kts | 112° |
| 2026-04-20 19:59 | 33.90695 | -118.40533 | 4232 ft | 82 kts | 115° |
| 2026-04-20 19:59 | 33.90481 | -118.39910 | 4418 ft | 81 kts | 115° |
| 2026-04-20 19:59 | 33.90261 | -118.39277 | 4560 ft | 83 kts | 115° |
| 2026-04-20 19:59 | 33.90041 | -118.38647 | 4716 ft | 82 kts | 115° |
| 2026-04-20 20:00 | 33.89818 | -118.38007 | 4844 ft | 84 kts | 114° |
| 2026-04-20 20:00 | 33.89594 | -118.37370 | 4990 ft | 84 kts | 117° |
| 2026-04-20 20:00 | 33.89347 | -118.36672 | 5000 ft | 99 kts | 114° |
| 2026-04-20 20:00 | 33.89065 | -118.35877 | 5003 ft | 107 kts | 114° |
| 2026-04-20 20:01 | 33.88764 | -118.35029 | 5007 ft | 113 kts | 114° |
| 2026-04-20 20:01 | 33.88449 | -118.34145 | 4997 ft | 116 kts | 115° |
| 2026-04-20 20:01 | 33.88136 | -118.33256 | 5002 ft | 116 kts | 115° |
| 2026-04-20 20:01 | 33.87810 | -118.32337 | 4999 ft | 123 kts | 115° |
| 2026-04-20 20:02 | 33.87479 | -118.31392 | 5003 ft | 122 kts | 116° |
| 2026-04-20 20:02 | 33.87147 | -118.30447 | 5003 ft | 123 kts | 116° |
| 2026-04-20 20:02 | 33.86812 | -118.29500 | 5003 ft | 123 kts | 116° |
| 2026-04-20 20:02 | 33.86481 | -118.28562 | 5002 ft | 124 kts | 115° |
| 2026-04-20 20:03 | 33.86142 | -118.27603 | 4993 ft | 125 kts | 116° |
| 2026-04-20 20:03 | 33.85803 | -118.26641 | 4991 ft | 125 kts | 115° |
| 2026-04-20 20:03 | 33.85463 | -118.25677 | 4993 ft | 125 kts | 115° |
| 2026-04-20 20:03 | 33.85121 | -118.24708 | 4993 ft | 126 kts | 114° |
| 2026-04-20 20:04 | 33.84775 | -118.23732 | 4996 ft | 127 kts | 116° |
| 2026-04-20 20:04 | 33.84428 | -118.22748 | 4993 ft | 129 kts | 115° |
| 2026-04-20 20:04 | 33.84078 | -118.21750 | 4997 ft | 130 kts | 115° |
| 2026-04-20 20:04 | 33.83727 | -118.20754 | 4997 ft | 131 kts | 115° |
| 2026-04-20 20:05 | 33.83371 | -118.19748 | 4987 ft | 129 kts | 115° |
| 2026-04-20 20:05 | 33.83026 | -118.18767 | 4989 ft | 127 kts | 115° |
| 2026-04-20 20:05 | 33.82677 | -118.17780 | 4989 ft | 129 kts | 115° |
| 2026-04-20 20:05 | 33.82324 | -118.16783 | 4991 ft | 130 kts | 115° |
| 2026-04-20 20:06 | 33.81969 | -118.15787 | 4983 ft | 129 kts | 115° |
| 2026-04-20 20:06 | 33.81619 | -118.14786 | 4988 ft | 131 kts | 115° |
| 2026-04-20 20:06 | 33.81266 | -118.13783 | 4986 ft | 130 kts | 116° |
| 2026-04-20 20:06 | 33.80921 | -118.12809 | 4987 ft | 128 kts | 116° |
| 2026-04-20 20:07 | 33.80574 | -118.11822 | 4958 ft | 128 kts | 115° |
| 2026-04-20 20:07 | 33.80223 | -118.10832 | 4959 ft | 129 kts | 115° |
| 2026-04-20 20:07 | 33.79871 | -118.09835 | 4956 ft | 130 kts | 116° |
| 2026-04-20 20:07 | 33.79526 | -118.08855 | 4960 ft | 126 kts | 116° |
| 2026-04-20 20:08 | 33.79181 | -118.07879 | 4956 ft | 127 kts | 116° |
| 2026-04-20 20:08 | 33.78837 | -118.06905 | 4961 ft | 127 kts | 115° |
| 2026-04-20 20:08 | 33.78493 | -118.05927 | 4958 ft | 126 kts | 118° |
| 2026-04-20 20:08 | 33.78192 | -118.04963 | 4958 ft | 125 kts | 105° |
| 2026-04-20 20:09 | 33.78103 | -118.03913 | 4957 ft | 127 kts | 99° |
| 2026-04-20 20:09 | 33.78027 | -118.02857 | 4958 ft | 127 kts | 101° |
| 2026-04-20 20:09 | 33.77951 | -118.01802 | 4956 ft | 127 kts | 99° |
| 2026-04-20 20:09 | 33.77909 | -118.00745 | 4957 ft | 127 kts | 97° |
| 2026-04-20 20:10 | 33.77875 | -117.99685 | 4953 ft | 127 kts | 97° |
| 2026-04-20 20:10 | 33.77818 | -117.98632 | 4956 ft | 126 kts | 98° |
| 2026-04-20 20:10 | 33.77751 | -117.97584 | 4957 ft | 126 kts | 101° |
| 2026-04-20 20:10 | 33.77679 | -117.96545 | 4956 ft | 127 kts | 101° |
| 2026-04-20 20:11 | 33.77603 | -117.95489 | 4959 ft | 127 kts | 99° |
| 2026-04-20 20:11 | 33.77528 | -117.94439 | 4959 ft | 126 kts | 101° |
| 2026-04-20 20:11 | 33.77451 | -117.93396 | 4958 ft | 125 kts | 100° |
| 2026-04-20 20:11 | 33.77375 | -117.92350 | 4960 ft | 126 kts | 101° |
| 2026-04-20 20:12 | 33.77297 | -117.91301 | 4978 ft | 127 kts | 98° |
| 2026-04-20 20:12 | 33.77220 | -117.90235 | 4980 ft | 129 kts | 100° |
| 2026-04-20 20:12 | 33.77144 | -117.89165 | 4978 ft | 128 kts | 99° |
| 2026-04-20 20:13 | 33.76990 | -117.87077 | 4979 ft | 124 kts | 101° |
| 2026-04-20 20:13 | 33.76914 | -117.86037 | 4979 ft | 126 kts | 99° |
| 2026-04-20 20:13 | 33.76837 | -117.84978 | 4979 ft | 128 kts | 101° |
| 2026-04-20 20:13 | 33.76760 | -117.83909 | 4970 ft | 127 kts | 99° |
| 2026-04-20 20:14 | 33.76685 | -117.82859 | 4974 ft | 126 kts | 101° |
| 2026-04-20 20:14 | 33.76609 | -117.81815 | 4974 ft | 126 kts | 98° |
| 2026-04-20 20:14 | 33.76532 | -117.80768 | 4975 ft | 126 kts | 101° |
| 2026-04-20 20:14 | 33.76455 | -117.79733 | 4975 ft | 126 kts | 101° |
| 2026-04-20 20:15 | 33.76380 | -117.78678 | 4971 ft | 126 kts | 101° |
| 2026-04-20 20:15 | 33.76302 | -117.77629 | 4970 ft | 127 kts | 99° |
| 2026-04-20 20:15 | 33.76219 | -117.76559 | 4973 ft | 130 kts | 101° |
| 2026-04-20 20:15 | 33.76111 | -117.75486 | 4967 ft | 128 kts | 103° |
| 2026-04-20 20:16 | 33.75979 | -117.74433 | 4969 ft | 127 kts | 114° |
| 2026-04-20 20:16 | 33.75411 | -117.73715 | 4960 ft | 119 kts | 159° |
| 2026-04-20 20:16 | 33.74584 | -117.73584 | 4994 ft | 123 kts | 173° |
| 2026-04-20 20:16 | 33.73736 | -117.73787 | 4987 ft | 126 kts | 194° |
| 2026-04-20 20:17 | 33.72891 | -117.73881 | 4980 ft | 123 kts | 176° |
| 2026-04-20 20:17 | 33.72038 | -117.73810 | 4980 ft | 123 kts | 174° |
| 2026-04-20 20:17 | 33.71190 | -117.73713 | 4980 ft | 122 kts | 171° |
| 2026-04-20 20:17 | 33.70348 | -117.73572 | 4980 ft | 123 kts | 171° |
| 2026-04-20 20:18 | 33.69507 | -117.73432 | 4980 ft | 121 kts | 171° |
| 2026-04-20 20:18 | 33.68677 | -117.73292 | 4979 ft | 120 kts | 171° |
| 2026-04-20 20:18 | 33.67848 | -117.73152 | 4981 ft | 120 kts | 171° |
| 2026-04-20 20:18 | 33.67037 | -117.73015 | 4980 ft | 119 kts | 171° |
| 2026-04-20 20:19 | 33.66223 | -117.72879 | 4979 ft | 117 kts | 171° |
| 2026-04-20 20:19 | 33.65418 | -117.72743 | 4979 ft | 118 kts | 171° |
| 2026-04-20 20:19 | 33.64603 | -117.72604 | 4978 ft | 119 kts | 171° |
| 2026-04-20 20:19 | 33.63789 | -117.72466 | 4987 ft | 117 kts | 170° |
| 2026-04-20 20:20 | 33.62978 | -117.72330 | 4982 ft | 118 kts | 170° |
| 2026-04-20 20:20 | 33.62165 | -117.72192 | 4984 ft | 118 kts | 171° |
| 2026-04-20 20:20 | 33.61340 | -117.72054 | 4983 ft | 120 kts | 171° |
| 2026-04-20 20:20 | 33.60523 | -117.71917 | 4987 ft | 120 kts | 171° |
| 2026-04-20 20:21 | 33.59690 | -117.71776 | 4986 ft | 121 kts | 171° |
| 2026-04-20 20:21 | 33.58856 | -117.71636 | 4983 ft | 120 kts | 169° |
| 2026-04-20 20:21 | 33.58025 | -117.71494 | 4988 ft | 122 kts | 171° |
| 2026-04-20 20:21 | 33.57192 | -117.71355 | 4982 ft | 120 kts | 169° |
| 2026-04-20 20:22 | 33.56366 | -117.71218 | 4983 ft | 121 kts | 171° |
| 2026-04-20 20:22 | 33.55525 | -117.71077 | 4986 ft | 122 kts | 170° |
| 2026-04-20 20:22 | 33.54690 | -117.70935 | 4985 ft | 122 kts | 170° |
| 2026-04-20 20:22 | 33.53856 | -117.70785 | 4979 ft | 120 kts | 170° |
| 2026-04-20 20:23 | 33.53033 | -117.70654 | 4977 ft | 118 kts | 170° |
| 2026-04-20 20:23 | 33.52217 | -117.70555 | 4969 ft | 119 kts | 180° |
| 2026-04-20 20:23 | 33.51379 | -117.70560 | 4980 ft | 122 kts | 179° |
| 2026-04-20 20:23 | 33.50532 | -117.70576 | 4977 ft | 120 kts | 179° |
| 2026-04-20 20:24 | 33.49697 | -117.70523 | 4982 ft | 121 kts | 168° |
| 2026-04-20 20:24 | 33.48897 | -117.70219 | 4977 ft | 121 kts | 153° |
| 2026-04-20 20:24 | 33.48232 | -117.69600 | 4976 ft | 121 kts | 141° |
| 2026-04-20 20:24 | 33.47600 | -117.68931 | 4976 ft | 122 kts | 139° |
| 2026-04-20 20:25 | 33.46983 | -117.68244 | 4984 ft | 121 kts | 139° |
| 2026-04-20 20:25 | 33.46372 | -117.67547 | 4986 ft | 125 kts | 139° |
| 2026-04-20 20:25 | 33.45739 | -117.66819 | 4985 ft | 128 kts | 137° |
| 2026-04-20 20:25 | 33.45089 | -117.66069 | 4986 ft | 132 kts | 137° |
| 2026-04-20 20:26 | 33.44432 | -117.65311 | 4978 ft | 130 kts | 137° |
| 2026-04-20 20:26 | 33.43788 | -117.64563 | 4978 ft | 128 kts | 137° |
| 2026-04-20 20:26 | 33.43153 | -117.63827 | 4977 ft | 126 kts | 137° |
| 2026-04-20 20:26 | 33.42525 | -117.63098 | 4979 ft | 126 kts | 137° |
| 2026-04-20 20:27 | 33.41894 | -117.62368 | 4980 ft | 126 kts | 137° |
| 2026-04-20 20:27 | 33.41276 | -117.61654 | 4980 ft | 124 kts | 138° |
| 2026-04-20 20:27 | 33.40658 | -117.60941 | 4984 ft | 124 kts | 139° |
| 2026-04-20 20:27 | 33.40025 | -117.60212 | 4988 ft | 128 kts | 137° |
| 2026-04-20 20:28 | 33.39599 | -117.59716 | 4990 ft | 130 kts | 137° |
| 2026-04-20 20:28 | 33.38723 | -117.58699 | 4990 ft | 132 kts | 138° |
| 2026-04-20 20:28 | 33.38061 | -117.57934 | 4986 ft | 133 kts | 138° |
| 2026-04-20 20:28 | 33.37403 | -117.57175 | 4980 ft | 129 kts | 137° |
| 2026-04-20 20:29 | 33.36773 | -117.56445 | 4979 ft | 127 kts | 138° |
| 2026-04-20 20:29 | 33.36146 | -117.55720 | 4979 ft | 125 kts | 138° |
| 2026-04-20 20:29 | 33.35525 | -117.55001 | 4980 ft | 124 kts | 138° |
| 2026-04-20 20:29 | 33.34906 | -117.54286 | 4979 ft | 124 kts | 137° |
| 2026-04-20 20:30 | 33.34286 | -117.53569 | 4977 ft | 124 kts | 138° |
| 2026-04-20 20:30 | 33.33669 | -117.52857 | 4977 ft | 123 kts | 138° |
| 2026-04-20 20:30 | 33.33129 | -117.52237 | 4973 ft | 90 kts | 139° |
| 2026-04-20 20:30 | 33.32714 | -117.51758 | 4764 ft | 89 kts | 139° |
| 2026-04-20 20:31 | 33.32255 | -117.51261 | 4530 ft | 88 kts | 143° |
| 2026-04-20 20:31 | 33.31808 | -117.50768 | 4328 ft | 85 kts | 134° |
| 2026-04-20 20:31 | 33.31428 | -117.50237 | 4086 ft | 88 kts | 131° |
| 2026-04-20 20:31 | 33.31028 | -117.49665 | 4070 ft | 84 kts | 129° |
| 2026-04-20 20:32 | 33.30656 | -117.49154 | 4218 ft | 83 kts | 139° |
| 2026-04-20 20:32 | 33.30212 | -117.48716 | 4342 ft | 83 kts | 139° |
| 2026-04-20 20:32 | 33.29778 | -117.48268 | 4467 ft | 82 kts | 138° |
| 2026-04-20 20:32 | 33.29356 | -117.47814 | 4596 ft | 81 kts | 139° |
| 2026-04-20 20:33 | 33.28947 | -117.47361 | 4711 ft | 79 kts | 139° |
| 2026-04-20 20:33 | 33.28550 | -117.46915 | 4844 ft | 78 kts | 139° |
| 2026-04-20 20:33 | 33.28154 | -117.46464 | 4962 ft | 79 kts | 138° |
| 2026-04-20 20:33 | 33.27738 | -117.45992 | 4984 ft | 89 kts | 138° |
| 2026-04-20 20:34 | 33.27272 | -117.45459 | 4992 ft | 97 kts | 138° |
| 2026-04-20 20:34 | 33.26774 | -117.44891 | 4997 ft | 101 kts | 139° |
| 2026-04-20 20:34 | 33.26251 | -117.44297 | 4997 ft | 107 kts | 139° |
| 2026-04-20 20:34 | 33.25709 | -117.43671 | 4997 ft | 109 kts | 138° |
| 2026-04-20 20:35 | 33.25152 | -117.43033 | 4996 ft | 114 kts | 138° |
| 2026-04-20 20:35 | 33.24572 | -117.42366 | 4993 ft | 117 kts | 138° |
| 2026-04-20 20:35 | 33.23985 | -117.41691 | 4993 ft | 117 kts | 137° |
| 2026-04-20 20:35 | 33.23390 | -117.41011 | 4991 ft | 119 kts | 138° |
| 2026-04-20 20:36 | 33.22755 | -117.40407 | 4991 ft | 118 kts | 148° |
| 2026-04-20 20:36 | 33.21968 | -117.40198 | 4993 ft | 117 kts | 175° |
| 2026-04-20 20:36 | 33.21194 | -117.40012 | 4987 ft | 111 kts | 161° |
| 2026-04-20 20:36 | 33.20432 | -117.39894 | 4984 ft | 114 kts | 182° |
| 2026-04-20 20:37 | 33.19655 | -117.39750 | 4991 ft | 114 kts | 164° |
| 2026-04-20 20:37 | 33.18893 | -117.39476 | 4990 ft | 115 kts | 162° |
| 2026-04-20 20:37 | 33.18131 | -117.39173 | 4989 ft | 116 kts | 161° |
| 2026-04-20 20:37 | 33.17368 | -117.38856 | 4991 ft | 117 kts | 160° |
| 2026-04-20 20:38 | 33.16618 | -117.38536 | 4989 ft | 116 kts | 160° |
| 2026-04-20 20:38 | 33.15855 | -117.38208 | 4988 ft | 117 kts | 160° |
| 2026-04-20 20:38 | 33.15087 | -117.37876 | 4991 ft | 118 kts | 160° |
| 2026-04-20 20:38 | 33.14318 | -117.37543 | 4989 ft | 118 kts | 160° |
| 2026-04-20 20:39 | 33.13552 | -117.37211 | 4993 ft | 117 kts | 160° |
| 2026-04-20 20:39 | 33.12783 | -117.36878 | 4991 ft | 118 kts | 160° |
| 2026-04-20 20:39 | 33.12015 | -117.36545 | 4992 ft | 117 kts | 160° |
| 2026-04-20 20:39 | 33.11247 | -117.36212 | 4994 ft | 118 kts | 160° |
| 2026-04-20 20:40 | 33.10490 | -117.35885 | 4992 ft | 117 kts | 160° |
| 2026-04-20 20:40 | 33.09728 | -117.35554 | 4994 ft | 117 kts | 160° |
| 2026-04-20 20:40 | 33.08965 | -117.35224 | 4991 ft | 116 kts | 160° |
| 2026-04-20 20:40 | 33.08207 | -117.34896 | 4991 ft | 116 kts | 160° |
| 2026-04-20 20:41 | 33.07449 | -117.34567 | 4994 ft | 116 kts | 160° |
| 2026-04-20 20:41 | 33.06686 | -117.34237 | 4991 ft | 117 kts | 160° |
| 2026-04-20 20:41 | 33.05919 | -117.33905 | 4992 ft | 117 kts | 160° |
| 2026-04-20 20:41 | 33.05154 | -117.33574 | 4992 ft | 117 kts | 160° |
| 2026-04-20 20:42 | 33.04403 | -117.33249 | 4982 ft | 116 kts | 160° |
| 2026-04-20 20:42 | 33.03639 | -117.32919 | 4986 ft | 117 kts | 160° |
| 2026-04-20 20:42 | 33.02870 | -117.32586 | 4987 ft | 118 kts | 160° |
| 2026-04-20 20:42 | 33.02102 | -117.32254 | 4989 ft | 117 kts | 160° |
| 2026-04-20 20:43 | 33.01332 | -117.31921 | 4989 ft | 118 kts | 160° |
| 2026-04-20 20:43 | 33.00557 | -117.31586 | 4991 ft | 119 kts | 160° |
| 2026-04-20 20:43 | 32.99781 | -117.31253 | 4991 ft | 118 kts | 160° |
| 2026-04-20 20:43 | 32.99014 | -117.30924 | 4992 ft | 117 kts | 160° |
| 2026-04-20 20:44 | 32.98261 | -117.30601 | 4994 ft | 117 kts | 160° |
| 2026-04-20 20:44 | 32.97493 | -117.30272 | 4995 ft | 117 kts | 160° |
| 2026-04-20 20:44 | 32.96728 | -117.29945 | 4997 ft | 117 kts | 160° |
| 2026-04-20 20:44 | 32.95961 | -117.29617 | 4996 ft | 117 kts | 160° |
| 2026-04-20 20:45 | 32.95198 | -117.29292 | 4997 ft | 116 kts | 160° |
| 2026-04-20 20:45 | 32.94438 | -117.28968 | 4999 ft | 116 kts | 161° |
| 2026-04-20 20:45 | 32.93679 | -117.28645 | 5001 ft | 116 kts | 160° |
| 2026-04-20 20:45 | 32.92898 | -117.28393 | 5002 ft | 117 kts | 166° |
| 2026-04-20 20:46 | 32.92106 | -117.28151 | 5007 ft | 118 kts | 164° |
| 2026-04-20 20:46 | 32.91331 | -117.27878 | 5007 ft | 117 kts | 162° |
| 2026-04-20 20:46 | 32.90553 | -117.27579 | 5007 ft | 118 kts | 162° |
| 2026-04-20 20:46 | 32.89778 | -117.27269 | 5011 ft | 118 kts | 161° |
| 2026-04-20 20:47 | 32.88998 | -117.26953 | 5011 ft | 119 kts | 161° |
| 2026-04-20 20:47 | 32.88211 | -117.26632 | 5011 ft | 120 kts | 161° |
| 2026-04-20 20:47 | 32.87424 | -117.26310 | 5012 ft | 119 kts | 160° |
| 2026-04-20 20:47 | 32.86644 | -117.25990 | 5012 ft | 118 kts | 161° |
| 2026-04-20 20:48 | 32.85866 | -117.25672 | 5022 ft | 118 kts | 161° |
| 2026-04-20 20:48 | 32.85083 | -117.25351 | 5014 ft | 122 kts | 161° |
| 2026-04-20 20:48 | 32.84281 | -117.25022 | 5013 ft | 121 kts | 161° |
| 2026-04-20 20:48 | 32.83507 | -117.24695 | 5015 ft | 115 kts | 161° |
| 2026-04-20 20:49 | 32.82728 | -117.24395 | 5010 ft | 119 kts | 163° |
| 2026-04-20 20:49 | 32.81957 | -117.24082 | 5017 ft | 117 kts | 161° |
| 2026-04-20 20:49 | 32.81184 | -117.23760 | 5009 ft | 116 kts | 161° |
| 2026-04-20 20:49 | 32.80422 | -117.23444 | 5021 ft | 118 kts | 161° |
| 2026-04-20 20:50 | 32.79637 | -117.23121 | 5022 ft | 124 kts | 161° |
| 2026-04-20 20:50 | 32.78820 | -117.22785 | 5012 ft | 122 kts | 161° |
| 2026-04-20 20:50 | 32.78022 | -117.22460 | 5010 ft | 120 kts | 161° |
| 2026-04-20 20:50 | 32.77222 | -117.22136 | 5015 ft | 125 kts | 161° |
| 2026-04-20 20:51 | 32.76413 | -117.21784 | 5012 ft | 123 kts | 150° |
| 2026-04-20 20:51 | 32.75856 | -117.21032 | 5020 ft | 121 kts | 130° |
| 2026-04-20 20:51 | 32.75196 | -117.20383 | 5024 ft | 126 kts | 146° |
| 2026-04-20 20:51 | 32.74459 | -117.19801 | 5024 ft | 128 kts | 148° |
| 2026-04-20 20:52 | 32.73743 | -117.19182 | 5019 ft | 131 kts | 137° |
| 2026-04-20 20:52 | 32.73349 | -117.18213 | 4999 ft | 134 kts | 106° |
| 2026-04-20 20:52 | 32.73180 | -117.17114 | 4984 ft | 136 kts | 105° |
| 2026-04-20 20:52 | 32.73021 | -117.16014 | 4983 ft | 134 kts | 105° |
| 2026-04-20 20:53 | 32.72873 | -117.14964 | 4979 ft | 124 kts | 107° |
| 2026-04-20 20:53 | 32.72724 | -117.13962 | 4973 ft | 122 kts | 104° |
| 2026-04-20 20:53 | 32.72586 | -117.12991 | 4987 ft | 120 kts | 105° |
| 2026-04-20 20:53 | 32.72434 | -117.12004 | 4967 ft | 122 kts | 104° |
| 2026-04-20 20:54 | 32.72287 | -117.11026 | 4983 ft | 119 kts | 105° |
| 2026-04-20 20:54 | 32.72144 | -117.10068 | 4983 ft | 120 kts | 103° |
| 2026-04-20 20:54 | 32.72000 | -117.09092 | 4985 ft | 119 kts | 107° |
| 2026-04-20 20:54 | 32.71855 | -117.08124 | 4984 ft | 120 kts | 104° |
| 2026-04-20 20:55 | 32.71709 | -117.07150 | 4980 ft | 120 kts | 103° |
| 2026-04-20 20:55 | 32.71564 | -117.06180 | 4983 ft | 119 kts | 107° |
| 2026-04-20 20:55 | 32.71416 | -117.05206 | 4981 ft | 121 kts | 105° |
| 2026-04-20 20:55 | 32.71270 | -117.04225 | 4966 ft | 121 kts | 104° |
| 2026-04-20 20:56 | 32.71123 | -117.03240 | 4966 ft | 120 kts | 107° |
| 2026-04-20 20:56 | 32.70979 | -117.02272 | 4967 ft | 121 kts | 106° |
| 2026-04-20 20:56 | 32.70831 | -117.01291 | 4967 ft | 120 kts | 107° |
| 2026-04-20 20:56 | 32.70683 | -117.00320 | 4967 ft | 120 kts | 105° |
| 2026-04-20 20:57 | 32.70535 | -116.99339 | 4969 ft | 122 kts | 107° |
| 2026-04-20 20:57 | 32.70385 | -116.98342 | 4965 ft | 124 kts | 104° |
| 2026-04-20 20:57 | 32.70233 | -116.97323 | 4966 ft | 127 kts | 105° |
| 2026-04-20 20:57 | 32.70080 | -116.96299 | 4960 ft | 124 kts | 106° |
| 2026-04-20 20:58 | 32.69931 | -116.95314 | 4957 ft | 122 kts | 105° |
| 2026-04-20 20:58 | 32.69781 | -116.94328 | 4973 ft | 122 kts | 104° |
| 2026-04-20 20:58 | 32.69626 | -116.93312 | 4973 ft | 128 kts | 105° |
| 2026-04-20 20:58 | 32.69166 | -116.92468 | 4960 ft | 121 kts | 144° |
| 2026-04-20 20:59 | 32.68387 | -116.92180 | 4927 ft | 115 kts | 182° |
| 2026-04-20 20:59 | 32.67709 | -116.92481 | 4791 ft | 99 kts | 213° |
| 2026-04-20 20:59 | 32.67311 | -116.93114 | 4615 ft | 97 kts | 244° |
| 2026-04-20 20:59 | 32.67247 | -116.93911 | 4412 ft | 102 kts | 279° |
| 2026-04-20 21:00 | 32.67444 | -116.94734 | 4188 ft | 106 kts | 281° |
| 2026-04-20 21:00 | 32.67652 | -116.95565 | 3969 ft | 107 kts | 282° |
| 2026-04-20 21:00 | 32.67864 | -116.96417 | 3751 ft | 108 kts | 282° |
| 2026-04-20 21:00 | 32.68082 | -116.97263 | 3577 ft | 104 kts | 284° |
| 2026-04-20 21:01 | 32.68315 | -116.98081 | 3575 ft | 106 kts | 284° |
| 2026-04-20 21:01 | 32.68570 | -116.98939 | 3449 ft | 113 kts | 285° |
| 2026-04-20 21:01 | 32.68829 | -116.99818 | 3325 ft | 109 kts | 284° |
| 2026-04-20 21:01 | 32.69022 | -117.00676 | 3161 ft | 105 kts | 282° |
| 2026-04-20 21:02 | 32.69180 | -117.01519 | 2976 ft | 108 kts | 281° |
| 2026-04-20 21:02 | 32.69380 | -117.02370 | 2899 ft | 106 kts | 284° |
| 2026-04-20 21:02 | 32.69581 | -117.03212 | 2781 ft | 105 kts | 285° |
| 2026-04-20 21:02 | 32.69781 | -117.04024 | 2675 ft | 101 kts | 282° |
| 2026-04-20 21:03 | 32.69973 | -117.04813 | 2567 ft | 92 kts | 283° |
| 2026-04-20 21:03 | 32.70134 | -117.05498 | 2458 ft | 86 kts | 282° |
| 2026-04-20 21:03 | 32.70297 | -117.06211 | 2360 ft | 91 kts | 281° |
| 2026-04-20 21:03 | 32.70433 | -117.06879 | 2298 ft | 75 kts | 282° |
| 2026-04-20 21:04 | 32.70585 | -117.07460 | 2169 ft | 74 kts | 282° |
| 2026-04-20 21:04 | 32.70726 | -117.08028 | 2079 ft | 72 kts | 282° |
| 2026-04-20 21:04 | 32.70864 | -117.08590 | 2000 ft | 70 kts | 281° |
| 2026-04-20 21:04 | 32.70999 | -117.09147 | 1940 ft | 66 kts | 278° |
| 2026-04-20 21:05 | 32.71112 | -117.09685 | 1793 ft | 75 kts | 283° |
| 2026-04-20 21:05 | 32.71263 | -117.10259 | 1729 ft | 70 kts | 284° |
| 2026-04-20 21:05 | 32.71404 | -117.10808 | 1579 ft | 69 kts | 281° |
| 2026-04-20 21:05 | 32.71533 | -117.11392 | 1327 ft | 76 kts | 279° |
| 2026-04-20 21:06 | 32.71678 | -117.12007 | 1095 ft | 76 kts | 280° |
| 2026-04-20 21:06 | 32.71813 | -117.12589 | 922 ft | 73 kts | 282° |
| 2026-04-20 21:06 | 32.71956 | -117.13164 | 758 ft | 73 kts | 286° |
| 2026-04-20 21:06 | 32.72098 | -117.13724 | 680 ft | 67 kts | 280° |
| 2026-04-20 21:07 | 32.72244 | -117.14235 | 729 ft | 66 kts | 283° |
| 2026-04-20 21:07 | 32.72365 | -117.14752 | 631 ft | 66 kts | 282° |
| 2026-04-20 21:07 | 32.72485 | -117.15316 | 602 ft | 74 kts | 270° |
| 2026-04-20 21:07 | 32.72636 | -117.15885 | 575 ft | 72 kts | 277° |
| 2026-04-20 21:08 | 32.72739 | -117.16441 | 463 ft | 68 kts | 289° |
| 2026-04-20 21:08 | 32.72888 | -117.16997 | 317 ft | 71 kts | 274° |
| 2026-04-20 21:08 | 32.73022 | -117.17552 | 176 ft | 72 kts | 280° |
| 2026-04-20 21:08 | 32.73146 | -117.18109 | 288 ft | 67 kts | 281° |
| 2026-04-20 21:09 | 32.73279 | -117.18620 | 491 ft | 66 kts | 280° |
| 2026-04-20 21:09 | 32.73404 | -117.19143 | 714 ft | 65 kts | 281° |
| 2026-04-20 21:09 | 32.73555 | -117.19639 | 1051 ft | 63 kts | 285° |
| 2026-04-20 21:09 | 32.73716 | -117.20157 | 1323 ft | 71 kts | 285° |
| 2026-04-20 21:10 | 32.73883 | -117.20793 | 1479 ft | 83 kts | 284° |
| 2026-04-20 21:10 | 32.74018 | -117.21390 | 1727 ft | 76 kts | 281° |
| 2026-04-20 21:10 | 32.74193 | -117.22013 | 1881 ft | 85 kts | 285° |
| 2026-04-20 21:10 | 32.74390 | -117.22704 | 2026 ft | 89 kts | 286° |
| 2026-04-20 21:11 | 32.74595 | -117.23402 | 2185 ft | 92 kts | 288° |
| 2026-04-20 21:11 | 32.74800 | -117.24150 | 2344 ft | 99 kts | 285° |
| 2026-04-20 21:11 | 32.75012 | -117.24947 | 2551 ft | 101 kts | 285° |
| 2026-04-20 21:11 | 32.75214 | -117.25670 | 2900 ft | 84 kts | 285° |
| 2026-04-20 21:12 | 32.75401 | -117.26317 | 3031 ft | 85 kts | 285° |
| 2026-04-20 21:12 | 32.75605 | -117.26980 | 3153 ft | 86 kts | 286° |
| 2026-04-20 21:12 | 32.75811 | -117.27647 | 3276 ft | 86 kts | 286° |
| 2026-04-20 21:12 | 32.76011 | -117.28316 | 3402 ft | 86 kts | 285° |
| 2026-04-20 21:13 | 32.76212 | -117.28990 | 3506 ft | 87 kts | 284° |
| 2026-04-20 21:13 | 32.76428 | -117.29667 | 3599 ft | 88 kts | 284° |
| 2026-04-20 21:13 | 32.76642 | -117.30347 | 3716 ft | 88 kts | 285° |
| 2026-04-20 21:13 | 32.76843 | -117.31032 | 3817 ft | 88 kts | 285° |
| 2026-04-20 21:14 | 32.76979 | -117.31488 | 3887 ft | 88 kts | 285° |
| 2026-04-20 21:14 | 32.77201 | -117.32417 | 4024 ft | 90 kts | 280° |
| 2026-04-20 21:14 | 32.77351 | -117.33134 | 4131 ft | 89 kts | 280° |
| 2026-04-20 21:14 | 32.77517 | -117.33873 | 4189 ft | 93 kts | 281° |
| 2026-04-20 21:15 | 32.77691 | -117.34588 | 4337 ft | 90 kts | 281° |
| 2026-04-20 21:15 | 32.77852 | -117.35318 | 4438 ft | 91 kts | 279° |
| 2026-04-20 21:15 | 32.77976 | -117.36040 | 4534 ft | 93 kts | 272° |
| 2026-04-20 21:15 | 32.78044 | -117.36542 | 4623 ft | 92 kts | 276° |
| 2026-04-20 21:16 | 32.78129 | -117.37278 | 4742 ft | 89 kts | 259° |
| 2026-04-20 21:16 | 32.78126 | -117.38267 | 4900 ft | 89 kts | 264° |
| 2026-04-20 21:16 | 32.78129 | -117.39018 | 4968 ft | 93 kts | 263° |
| 2026-04-20 21:16 | 32.78119 | -117.39840 | 4965 ft | 104 kts | 265° |
| 2026-04-20 21:17 | 32.78134 | -117.40738 | 4968 ft | 110 kts | 266° |
| 2026-04-20 21:17 | 32.78166 | -117.41663 | 4975 ft | 114 kts | 267° |
| 2026-04-20 21:17 | 32.78185 | -117.42289 | 4977 ft | 115 kts | 266° |
| 2026-04-20 21:17 | 32.78203 | -117.43254 | 4979 ft | 118 kts | 266° |
| 2026-04-20 21:18 | 32.78212 | -117.44238 | 4979 ft | 120 kts | 265° |
| 2026-04-20 21:18 | 32.78217 | -117.45237 | 4976 ft | 121 kts | 265° |
| 2026-04-20 21:18 | 32.78218 | -117.46567 | 4978 ft | 120 kts | 264° |
| 2026-04-20 21:18 | 32.78168 | -117.47221 | 4973 ft | 114 kts | 248° |
| 2026-04-20 21:19 | 32.77792 | -117.48000 | 4950 ft | 109 kts | 232° |
| 2026-04-20 21:19 | 32.77379 | -117.48743 | 4919 ft | 103 kts | 231° |
| 2026-04-20 21:19 | 32.76965 | -117.49471 | 4807 ft | 110 kts | 233° |
| 2026-04-20 21:20 | 32.76159 | -117.50917 | 4954 ft | 104 kts | 249° |
| 2026-04-20 21:20 | 32.76382 | -117.52020 | 4982 ft | 113 kts | 310° |
| 2026-04-20 21:20 | 32.76826 | -117.52369 | 4983 ft | 115 kts | 340° |
| 2026-04-20 21:20 | 32.77612 | -117.52359 | 4991 ft | 115 kts | 24° |
| 2026-04-20 21:21 | 32.78168 | -117.51724 | 4951 ft | 114 kts | 74° |
| 2026-04-20 21:21 | 32.78262 | -117.50816 | 4977 ft | 109 kts | 89° |
| 2026-04-20 21:21 | 32.78313 | -117.49898 | 4929 ft | 111 kts | 91° |
| 2026-04-20 21:21 | 32.78337 | -117.48985 | 4902 ft | 109 kts | 94° |
| 2026-04-20 21:22 | 32.78428 | -117.47805 | 4944 ft | 107 kts | 90° |
| 2026-04-20 21:22 | 32.78475 | -117.47198 | 4943 ft | 108 kts | 92° |
| 2026-04-20 21:22 | 32.78443 | -117.46338 | 4982 ft | 98 kts | 113° |
| 2026-04-20 21:22 | 32.78006 | -117.45763 | 4986 ft | 96 kts | 155° |
| 2026-04-20 21:23 | 32.77355 | -117.45725 | 4991 ft | 101 kts | 196° |
| 2026-04-20 21:23 | 32.76815 | -117.46259 | 5031 ft | 104 kts | 236° |
| 2026-04-20 21:23 | 32.76664 | -117.47128 | 5022 ft | 112 kts | 263° |
| 2026-04-20 21:23 | 32.76635 | -117.48061 | 4986 ft | 112 kts | 263° |
| 2026-04-20 21:24 | 32.76583 | -117.48977 | 4949 ft | 111 kts | 261° |
| 2026-04-20 21:24 | 32.76510 | -117.49882 | 4931 ft | 110 kts | 259° |
| 2026-04-20 21:24 | 32.76451 | -117.50783 | 4924 ft | 109 kts | 264° |
| 2026-04-20 21:24 | 32.76706 | -117.51628 | 4916 ft | 113 kts | 302° |
| 2026-04-20 21:25 | 32.77305 | -117.52187 | 4989 ft | 110 kts | 337° |
| 2026-04-20 21:25 | 32.78006 | -117.52114 | 5031 ft | 107 kts | 34° |
| 2026-04-20 21:25 | 32.78422 | -117.51426 | 5045 ft | 103 kts | 78° |
| 2026-04-20 21:25 | 32.78487 | -117.50547 | 4943 ft | 111 kts | 92° |
| 2026-04-20 21:26 | 32.78458 | -117.49638 | 4803 ft | 108 kts | 105° |
| 2026-04-20 21:26 | 32.78304 | -117.48782 | 4624 ft | 103 kts | 106° |
| 2026-04-20 21:26 | 32.78186 | -117.47947 | 4486 ft | 103 kts | 98° |
| 2026-04-20 21:26 | 32.78169 | -117.47075 | 4274 ft | 103 kts | 97° |
| 2026-04-20 21:27 | 32.78262 | -117.46206 | 4085 ft | 111 kts | 88° |
| 2026-04-20 21:27 | 32.78386 | -117.45284 | 3864 ft | 112 kts | 87° |
| 2026-04-20 21:27 | 32.78492 | -117.44391 | 3596 ft | 107 kts | 87° |
| 2026-04-20 21:27 | 32.78589 | -117.43515 | 3327 ft | 106 kts | 86° |
| 2026-04-20 21:28 | 32.78793 | -117.42657 | 3054 ft | 109 kts | 77° |
| 2026-04-20 21:28 | 32.78838 | -117.41805 | 2888 ft | 97 kts | 103° |
| 2026-04-20 21:28 | 32.78679 | -117.41039 | 2723 ft | 98 kts | 109° |
| 2026-04-20 21:28 | 32.78482 | -117.40223 | 2540 ft | 103 kts | 108° |
| 2026-04-20 21:29 | 32.78299 | -117.39398 | 2420 ft | 106 kts | 108° |
| 2026-04-20 21:29 | 32.78089 | -117.38554 | 2369 ft | 104 kts | 108° |
| 2026-04-20 21:29 | 32.77887 | -117.37705 | 2239 ft | 110 kts | 107° |
| 2026-04-20 21:29 | 32.77688 | -117.36849 | 2204 ft | 103 kts | 107° |
| 2026-04-20 21:30 | 32.77480 | -117.36015 | 2081 ft | 109 kts | 108° |
| 2026-04-20 21:30 | 32.77264 | -117.35141 | 2039 ft | 110 kts | 110° |
| 2026-04-20 21:30 | 32.77054 | -117.34295 | 1997 ft | 99 kts | 108° |
| 2026-04-20 21:30 | 32.76889 | -117.33552 | 1953 ft | 88 kts | 112° |
| 2026-04-20 21:31 | 32.76692 | -117.32846 | 1980 ft | 94 kts | 107° |
| 2026-04-20 21:31 | 32.76543 | -117.32150 | 2008 ft | 82 kts | 108° |
| 2026-04-20 21:31 | 32.76380 | -117.31486 | 1968 ft | 86 kts | 108° |
| 2026-04-20 21:31 | 32.76227 | -117.30797 | 1964 ft | 88 kts | 106° |
| 2026-04-20 21:32 | 32.76067 | -117.30116 | 1867 ft | 87 kts | 110° |
| 2026-04-20 21:32 | 32.75871 | -117.29427 | 1694 ft | 89 kts | 109° |
| 2026-04-20 21:32 | 32.75685 | -117.28699 | 1562 ft | 91 kts | 108° |
| 2026-04-20 21:32 | 32.75534 | -117.27965 | 1460 ft | 93 kts | 101° |
| 2026-04-20 21:33 | 32.75366 | -117.27229 | 1337 ft | 94 kts | 112° |
| 2026-04-20 21:33 | 32.75172 | -117.26469 | 1241 ft | 97 kts | 107° |
| 2026-04-20 21:33 | 32.74987 | -117.25685 | 1084 ft | 98 kts | 110° |
| 2026-04-20 21:33 | 32.74811 | -117.24913 | 976 ft | 95 kts | 105° |
| 2026-04-20 21:34 | 32.74606 | -117.24159 | 807 ft | 98 kts | 106° |
| 2026-04-20 21:34 | 32.74435 | -117.23413 | 683 ft | 91 kts | 107° |
| 2026-04-20 21:34 | 32.74269 | -117.22685 | 554 ft | 91 kts | 108° |
| 2026-04-20 21:34 | 32.74084 | -117.21985 | 407 ft | 94 kts | 107° |
| 2026-04-20 21:35 | 32.73891 | -117.21242 | 265 ft | 95 kts | 103° |
| 2026-04-20 21:35 | 32.73732 | -117.20541 | 121 ft | 83 kts | 102° |
| 2026-04-20 21:35 | 32.73583 | -117.19894 | 23 ft | 77 kts | 106° |
| 2026-04-20 21:35 | 32.73458 | -117.19491 | 20 ft | 13 kts | 208° |
| 2026-04-20 21:36 | 32.73400 | -117.19515 | 21 ft | 9 kts | 161° |
| 2026-04-20 21:36 | 32.73375 | -117.19471 | 21 ft | 0 kts | 106° |
| 2026-04-20 21:36 | 32.73373 | -117.19460 | 21 ft | 8 kts | 105° |
| 2026-04-20 21:36 | 32.73340 | -117.19327 | 18 ft | 26 kts | 105° |
| 2026-04-20 21:37 | 32.73278 | -117.19071 | 20 ft | 36 kts | 106° |
| 2026-04-20 21:37 | 32.73205 | -117.18769 | 30 ft | 40 kts | 105° |
| 2026-04-20 21:37 | 32.73127 | -117.18455 | 22 ft | 38 kts | 106° |
| 2026-04-20 21:37 | 32.73057 | -117.18164 | 19 ft | 37 kts | 106° |
| 2026-04-20 21:38 | 32.72986 | -117.17877 | 19 ft | 36 kts | 108° |
| 2026-04-20 21:38 | 32.72952 | -117.17685 | 19 ft | 11 kts | 75° |
| 2026-04-20 21:38 | 32.72964 | -117.17642 | 20 ft | 16 kts | 68° |
| 2026-04-20 21:38 | 32.73107 | -117.17678 | 22 ft | 29 kts | 2° |
| 2026-04-20 21:39 | 32.73260 | -117.17792 | 22 ft | 26 kts | 288° |
| 2026-04-20 21:39 | 32.73323 | -117.17957 | 24 ft | 19 kts | 343° |
| 2026-04-20 21:39 | 32.73380 | -117.17873 | 24 ft | 15 kts | 358° |
| 2026-04-20 21:39 | 32.73390 | -117.17894 | 25 ft | 0 kts | 176° |